createdAt,value
2018-08-06T00:01:08.123Z,20.33
2018-08-06T00:03:35.787Z,20.40
2018-08-06T00:06:03.503Z,20.38
2018-08-06T00:08:31.206Z,20.35
2018-08-06T00:10:58.808Z,20.33
2018-08-06T00:13:26.445Z,20.35
2018-08-06T00:15:54.072Z,20.32
2018-08-06T00:18:21.838Z,20.33
2018-08-06T00:20:49.415Z,20.36
2018-08-06T00:23:17.009Z,20.34
2018-08-06T00:25:44.633Z,20.34
2018-08-06T00:28:12.281Z,20.35
2018-08-06T00:30:39.921Z,20.36
2018-08-06T00:33:07.532Z,20.38
2018-08-06T00:35:35.216Z,20.36
2018-08-06T00:38:02.904Z,20.32
2018-08-06T00:40:30.572Z,20.30
2018-08-06T00:42:58.186Z,20.27
2018-08-06T00:45:25.844Z,20.25
2018-08-06T00:47:53.461Z,20.20
2018-08-06T00:50:21.074Z,20.17
2018-08-06T00:52:48.704Z,20.13
2018-08-06T00:55:17.644Z,20.14
2018-08-06T00:57:45.223Z,20.14
2018-08-06T01:00:15.237Z,20.12
2018-08-06T01:02:43.025Z,20.07
2018-08-06T01:05:11.735Z,20.03
2018-08-06T01:07:39.752Z,20.01
2018-08-06T01:10:09.297Z,20.01
2018-08-06T01:12:37.860Z,19.99
2018-08-06T01:15:06.093Z,20.00
2018-08-06T01:17:33.800Z,19.98
2018-08-06T01:20:01.447Z,19.93
2018-08-06T01:22:29.133Z,19.88
2018-08-06T01:24:56.796Z,19.84
2018-08-06T01:27:24.415Z,19.80
2018-08-06T01:29:52.141Z,19.75
2018-08-06T01:32:19.823Z,19.71
2018-08-06T01:34:47.528Z,19.66
2018-08-06T01:37:15.139Z,19.65
2018-08-06T01:39:42.739Z,19.61
2018-08-06T01:42:10.343Z,19.61
2018-08-06T01:44:37.964Z,19.56
2018-08-06T01:47:05.676Z,19.49
2018-08-06T01:49:33.282Z,19.41
2018-08-06T01:52:00.872Z,19.40
2018-08-06T01:54:28.485Z,19.35
2018-08-06T01:56:56.134Z,19.34
2018-08-06T01:59:23.691Z,19.31
2018-08-06T02:01:51.368Z,19.28
2018-08-06T02:04:18.973Z,19.28
2018-08-06T02:06:46.579Z,19.27
2018-08-06T02:09:14.196Z,19.25
2018-08-06T02:11:41.811Z,19.22
2018-08-06T02:14:09.415Z,19.20
2018-08-06T02:16:37.095Z,19.16
2018-08-06T02:19:04.706Z,19.14
2018-08-06T02:21:32.272Z,19.10
2018-08-06T02:23:59.951Z,19.06
2018-08-06T02:26:27.700Z,19.05
2018-08-06T02:28:55.339Z,19.04
2018-08-06T02:31:23.008Z,19.00
2018-08-06T02:33:50.631Z,18.98
2018-08-06T02:36:18.300Z,18.95
2018-08-06T02:38:45.891Z,18.94
2018-08-06T02:41:13.533Z,18.88
2018-08-06T02:43:41.248Z,18.89
2018-08-06T02:46:08.896Z,18.89
2018-08-06T02:48:36.511Z,18.89
2018-08-06T02:51:04.171Z,18.88
2018-08-06T02:53:31.822Z,18.88
2018-08-06T02:55:59.500Z,18.82
2018-08-06T02:58:27.245Z,18.80
2018-08-06T03:00:54.979Z,18.80
2018-08-06T03:03:22.602Z,18.78
2018-08-06T03:05:50.210Z,18.79
2018-08-06T03:08:17.859Z,18.77
2018-08-06T03:10:45.515Z,18.77
2018-08-06T03:13:13.170Z,18.76
2018-08-06T03:15:40.836Z,18.74
2018-08-06T03:18:08.516Z,18.73
2018-08-06T03:20:36.100Z,18.69
2018-08-06T03:23:03.743Z,18.66
2018-08-06T03:25:31.468Z,18.67
2018-08-06T03:27:59.038Z,18.66
2018-08-06T03:33:08.436Z,18.59
2018-08-06T03:35:36.052Z,18.60
2018-08-06T03:38:03.690Z,18.57
2018-08-06T03:40:31.399Z,18.52
2018-08-06T03:42:59.028Z,18.53
2018-08-06T03:45:26.655Z,18.51
2018-08-06T03:47:54.325Z,18.50
2018-08-06T03:50:21.958Z,18.46
2018-08-06T03:52:49.591Z,18.44
2018-08-06T03:55:17.275Z,18.40
2018-08-06T03:57:44.891Z,18.36
2018-08-06T04:00:13.703Z,18.30
2018-08-06T04:02:41.908Z,18.28
2018-08-06T04:05:11.303Z,18.24
2018-08-06T04:07:39.348Z,18.18
2018-08-06T04:10:08.303Z,18.19
2018-08-06T04:12:35.922Z,18.18
2018-08-06T04:15:04.332Z,18.17
2018-08-06T04:17:31.971Z,18.19
2018-08-06T04:19:59.603Z,18.14
2018-08-06T04:22:27.215Z,18.20
2018-08-06T04:24:54.911Z,18.25
2018-08-06T04:27:22.539Z,18.24
2018-08-06T04:29:50.115Z,18.28
2018-08-06T04:32:17.752Z,18.35
2018-08-06T04:34:45.341Z,18.33
2018-08-06T04:37:12.944Z,18.36
2018-08-06T04:39:40.623Z,18.35
2018-08-06T04:42:08.263Z,18.34
2018-08-06T04:44:35.903Z,18.36
2018-08-06T04:47:03.588Z,18.48
2018-08-06T04:49:31.165Z,18.57
2018-08-06T04:51:58.804Z,18.63
2018-08-06T04:54:26.465Z,18.67
2018-08-06T04:56:54.091Z,18.72
2018-08-06T04:59:21.765Z,18.77
2018-08-06T05:01:49.384Z,18.84
2018-08-06T05:04:16.952Z,18.91
2018-08-06T05:06:44.675Z,18.94
2018-08-06T05:09:19.675Z,18.86
2018-08-06T05:11:47.379Z,18.84
2018-08-06T05:14:15.009Z,18.83
2018-08-06T05:16:42.769Z,18.87
2018-08-06T05:19:10.634Z,18.98
2018-08-06T05:21:38.390Z,19.12
2018-08-06T05:24:06.120Z,19.22
2018-08-06T05:26:33.905Z,19.27
2018-08-06T05:29:01.575Z,19.42
2018-08-06T05:31:29.331Z,19.54
2018-08-06T05:33:57.922Z,19.58
2018-08-06T05:36:25.539Z,19.60
2018-08-06T05:38:54.476Z,19.70
2018-08-06T05:41:23.422Z,19.91
2018-08-06T05:43:51.903Z,20.00
2018-08-06T05:46:19.585Z,20.11
2018-08-06T05:48:47.187Z,20.27
2018-08-06T05:51:14.805Z,20.32
2018-08-06T05:53:42.491Z,20.40
2018-08-06T05:56:10.759Z,20.31
2018-08-06T05:58:38.980Z,20.51
2018-08-06T06:01:06.747Z,20.82
2018-08-06T06:03:34.423Z,21.04
2018-08-06T06:06:02.052Z,21.28
2018-08-06T06:08:29.752Z,21.42
2018-08-06T06:10:57.324Z,21.60
2018-08-06T06:13:24.960Z,21.77
2018-08-06T06:15:52.760Z,21.95
2018-08-06T06:18:20.320Z,22.15
2018-08-06T06:20:47.932Z,22.34
2018-08-06T06:23:15.654Z,22.48
2018-08-06T06:25:43.307Z,22.67
2018-08-06T06:28:10.973Z,22.80
2018-08-06T06:30:38.675Z,23.04
2018-08-06T06:33:06.336Z,23.26
2018-08-06T06:35:33.988Z,23.36
2018-08-06T06:38:01.668Z,23.51
2018-08-06T06:40:29.437Z,23.71
2018-08-06T06:42:57.055Z,23.70
2018-08-06T06:45:24.771Z,23.67
2018-08-06T06:47:52.552Z,23.74
2018-08-06T06:50:20.131Z,23.87
2018-08-06T06:52:47.735Z,24.07
2018-08-06T06:55:15.381Z,24.38
2018-08-06T06:57:43.456Z,24.62
2018-08-06T07:00:11.380Z,24.90
2018-08-06T07:02:39.563Z,25.07
2018-08-06T07:05:07.403Z,25.22
2018-08-06T07:07:35.476Z,25.22
2018-08-06T07:10:03.752Z,25.31
2018-08-06T07:12:31.465Z,25.51
2018-08-06T07:14:59.295Z,25.78
2018-08-06T07:17:26.947Z,25.98
2018-08-06T07:19:54.764Z,26.11
2018-08-06T07:22:22.925Z,26.28
2018-08-06T07:24:50.556Z,26.44
2018-08-06T07:27:18.167Z,26.69
2018-08-06T07:29:45.950Z,26.92
2018-08-06T07:32:13.655Z,27.10
2018-08-06T07:34:41.342Z,27.19
2018-08-06T07:37:08.990Z,27.05
2018-08-06T07:39:36.597Z,27.03
2018-08-06T07:42:04.303Z,27.25
2018-08-06T07:44:32.164Z,27.36
2018-08-06T07:46:59.817Z,27.50
2018-08-06T07:49:27.481Z,27.78
2018-08-06T07:51:55.056Z,27.94
2018-08-06T07:54:22.684Z,28.21
2018-08-06T07:56:50.259Z,28.35
2018-08-06T07:59:17.916Z,28.56
2018-08-06T08:01:45.571Z,28.60
2018-08-06T08:04:13.198Z,28.55
2018-08-06T08:06:40.935Z,28.65
2018-08-06T08:09:10.068Z,28.91
2018-08-06T08:11:37.875Z,29.13
2018-08-06T08:14:05.749Z,29.22
2018-08-06T08:16:33.813Z,29.41
2018-08-06T08:19:01.376Z,29.66
2018-08-06T08:21:29.092Z,29.11
2018-08-06T08:23:56.759Z,29.35
2018-08-06T08:26:24.526Z,29.80
2018-08-06T08:28:52.284Z,30.19
2018-08-06T08:31:19.933Z,30.67
2018-08-06T08:33:47.634Z,31.00
2018-08-06T08:36:15.464Z,31.32
2018-08-06T08:38:43.208Z,31.94
2018-08-06T08:41:11.127Z,32.46
2018-08-06T08:43:38.776Z,32.89
2018-08-06T08:46:06.612Z,33.14
2018-08-06T08:48:35.565Z,33.47
2018-08-06T08:51:03.304Z,34.20
2018-08-06T08:53:30.973Z,34.55
2018-08-06T08:55:59.609Z,34.47
2018-08-06T08:58:27.292Z,34.75
2018-08-06T09:00:55.130Z,34.62
2018-08-06T09:03:22.838Z,34.62
2018-08-06T09:05:50.525Z,34.86
2018-08-06T09:08:18.189Z,34.90
2018-08-06T09:10:46.340Z,35.35
2018-08-06T09:13:15.948Z,35.50
2018-08-06T09:15:43.523Z,35.91
2018-08-06T09:18:11.111Z,35.82
2018-08-06T09:20:38.755Z,36.03
2018-08-06T09:23:06.535Z,36.05
2018-08-06T09:25:34.199Z,36.20
2018-08-06T09:28:01.889Z,35.97
2018-08-06T09:30:29.606Z,35.69
2018-08-06T09:32:57.774Z,35.68
2018-08-06T09:35:25.394Z,36.17
2018-08-06T09:37:53.192Z,36.21
2018-08-06T09:40:21.908Z,36.12
2018-08-06T09:42:50.133Z,36.46
2018-08-06T09:45:19.036Z,36.33
2018-08-06T09:47:47.954Z,36.20
2018-08-06T09:50:16.527Z,36.69
2018-08-06T09:52:45.004Z,36.78
2018-08-06T09:55:13.958Z,36.84
2018-08-06T09:57:42.147Z,36.89
2018-08-06T10:00:19.028Z,37.17
2018-08-06T10:02:47.583Z,37.13
2018-08-06T10:05:15.258Z,37.01
2018-08-06T10:07:43.195Z,37.07
2018-08-06T10:10:12.403Z,37.11
2018-08-06T10:12:40.607Z,37.17
2018-08-06T10:15:09.056Z,37.31
2018-08-06T10:17:36.872Z,37.31
2018-08-06T10:20:06.506Z,37.45
2018-08-06T10:22:34.096Z,37.62
2018-08-06T10:25:01.790Z,37.72
2018-08-06T10:27:29.436Z,37.76
2018-08-06T10:29:57.212Z,37.76
2018-08-06T10:32:24.851Z,37.80
2018-08-06T10:34:53.617Z,37.79
2018-08-06T10:37:21.396Z,38.07
2018-08-06T10:39:49.578Z,38.27
2018-08-06T10:42:17.365Z,38.14
2018-08-06T10:44:44.986Z,38.12
2018-08-06T10:47:12.638Z,38.13
2018-08-06T10:49:40.240Z,38.19
2018-08-06T10:52:07.960Z,37.73
2018-08-06T10:54:35.631Z,37.96
2018-08-06T10:57:03.298Z,37.71
2018-08-06T10:59:30.916Z,37.73
2018-08-06T11:01:58.659Z,38.02
2018-08-06T11:04:26.369Z,38.25
2018-08-06T11:06:54.375Z,38.76
2018-08-06T11:09:22.016Z,39.27
2018-08-06T11:11:49.647Z,39.66
2018-08-06T11:14:17.427Z,39.93
2018-08-06T11:16:45.020Z,40.20
2018-08-06T11:19:12.656Z,40.56
2018-08-06T11:21:40.371Z,40.98
2018-08-06T11:24:08.243Z,41.30
2018-08-06T11:26:35.995Z,41.54
2018-08-06T11:29:03.831Z,41.76
2018-08-06T11:31:31.571Z,41.84
2018-08-06T11:33:59.250Z,42.10
2018-08-06T11:36:26.908Z,42.26
2018-08-06T11:38:54.551Z,42.40
2018-08-06T11:41:22.173Z,42.18
2018-08-06T11:43:49.788Z,42.10
2018-08-06T11:46:17.427Z,42.29
2018-08-06T11:48:45.103Z,42.29
2018-08-06T11:51:12.703Z,42.24
2018-08-06T11:53:40.382Z,42.42
2018-08-06T11:56:08.029Z,42.73
2018-08-06T11:58:35.663Z,43.22
2018-08-06T12:01:03.422Z,43.58
2018-08-06T12:03:31.096Z,43.92
2018-08-06T12:05:58.720Z,44.20
2018-08-06T12:08:26.397Z,44.58
2018-08-06T12:10:53.999Z,44.52
2018-08-06T12:13:21.594Z,44.75
2018-08-06T12:15:49.242Z,44.29
2018-08-06T12:18:16.839Z,43.08
2018-08-06T12:20:44.516Z,43.33
2018-08-06T12:23:12.189Z,43.37
2018-08-06T12:25:39.786Z,43.85
2018-08-06T12:28:07.494Z,44.44
2018-08-06T12:30:35.328Z,44.93
2018-08-06T12:33:02.968Z,45.11
2018-08-06T12:35:30.932Z,45.03
2018-08-06T12:37:58.612Z,45.24
2018-08-06T12:40:26.203Z,45.18
2018-08-06T12:42:53.875Z,44.71
2018-08-06T12:45:21.571Z,44.85
2018-08-06T12:47:49.220Z,45.21
2018-08-06T12:50:17.343Z,43.98
2018-08-06T12:52:45.138Z,44.02
2018-08-06T12:55:14.089Z,43.83
2018-08-06T12:57:42.594Z,44.29
2018-08-06T13:00:16.905Z,44.80
2018-08-06T13:02:45.101Z,44.74
2018-08-06T13:05:12.910Z,43.84
2018-08-06T13:07:41.143Z,44.52
2018-08-06T13:10:08.890Z,44.81
2018-08-06T13:12:37.765Z,45.36
2018-08-06T13:15:06.184Z,45.58
2018-08-06T13:17:33.847Z,45.74
2018-08-06T13:20:02.338Z,45.61
2018-08-06T13:22:30.201Z,45.86
2018-08-06T13:24:57.967Z,46.25
2018-08-06T13:27:25.580Z,46.44
2018-08-06T13:29:53.251Z,46.50
2018-08-06T13:32:20.924Z,46.49
2018-08-06T13:34:48.500Z,46.33
2018-08-06T13:37:16.178Z,46.36
2018-08-06T13:39:43.778Z,46.49
2018-08-06T13:42:11.561Z,46.75
2018-08-06T13:44:39.196Z,46.91
2018-08-06T13:47:06.900Z,47.01
2018-08-06T13:49:34.444Z,46.95
2018-08-06T13:52:02.119Z,46.99
2018-08-06T13:54:29.802Z,47.27
2018-08-06T13:56:57.383Z,47.03
2018-08-06T13:59:25.228Z,47.05
2018-08-06T14:01:52.695Z,47.00
2018-08-06T14:04:20.357Z,47.01
2018-08-06T14:06:48.033Z,46.96
2018-08-06T14:09:15.652Z,46.89
2018-08-06T14:11:43.320Z,46.95
2018-08-06T14:14:10.955Z,46.83
2018-08-06T14:16:38.855Z,46.87
2018-08-06T14:19:06.468Z,46.59
2018-08-06T14:21:34.391Z,46.62
2018-08-06T14:24:02.120Z,46.62
2018-08-06T14:26:29.725Z,46.70
2018-08-06T14:28:57.569Z,46.67
2018-08-06T14:31:25.213Z,46.66
2018-08-06T14:33:53.443Z,46.41
2018-08-06T14:36:21.127Z,46.44
2018-08-06T14:38:48.715Z,46.55
2018-08-06T14:41:16.377Z,46.46
2018-08-06T14:43:44.029Z,46.34
2018-08-06T14:46:11.719Z,46.30
2018-08-06T14:48:39.457Z,46.34
2018-08-06T14:51:07.268Z,46.26
2018-08-06T14:53:35.036Z,46.33
2018-08-06T14:56:02.707Z,46.25
2018-08-06T14:58:30.340Z,46.04
2018-08-06T15:00:59.019Z,45.84
2018-08-06T15:03:26.767Z,45.98
2018-08-06T15:05:54.456Z,45.74
2018-08-06T15:08:22.082Z,45.54
2018-08-06T15:10:49.785Z,45.50
2018-08-06T15:13:17.464Z,45.27
2018-08-06T15:15:45.108Z,45.18
2018-08-06T15:18:12.729Z,44.81
2018-08-06T15:20:40.448Z,44.56
2018-08-06T15:23:08.088Z,44.24
2018-08-06T15:25:35.756Z,43.96
2018-08-06T15:28:03.535Z,43.62
2018-08-06T15:30:31.320Z,43.26
2018-08-06T15:32:58.944Z,42.86
2018-08-06T15:35:26.823Z,42.35
2018-08-06T15:37:54.658Z,41.64
2018-08-06T15:40:22.879Z,40.80
2018-08-06T15:42:50.534Z,39.90
2018-08-06T15:45:18.272Z,39.31
2018-08-06T15:47:46.279Z,38.59
2018-08-06T15:50:16.799Z,38.02
2018-08-06T15:52:44.492Z,37.59
2018-08-06T15:55:12.257Z,37.03
2018-08-06T15:57:39.930Z,36.45
2018-08-06T16:00:10.035Z,35.86
2018-08-06T16:02:37.827Z,35.50
2018-08-06T16:05:06.727Z,35.19
2018-08-06T16:07:34.456Z,34.96
2018-08-06T16:10:02.172Z,34.79
2018-08-06T16:12:30.264Z,34.67
2018-08-06T16:14:57.995Z,34.47
2018-08-06T16:17:25.608Z,34.31
2018-08-06T16:19:53.440Z,34.24
2018-08-06T16:22:21.126Z,34.11
2018-08-06T16:24:48.776Z,33.95
2018-08-06T16:27:16.560Z,33.84
2018-08-06T16:29:44.131Z,33.76
2018-08-06T16:32:11.846Z,33.63
2018-08-06T16:34:39.629Z,33.53
2018-08-06T16:37:07.217Z,33.43
2018-08-06T16:39:34.834Z,33.34
2018-08-06T16:42:02.638Z,33.25
2018-08-06T16:44:30.352Z,33.12
2018-08-06T16:46:58.508Z,33.05
2018-08-06T16:49:26.144Z,33.00
2018-08-06T16:51:53.798Z,32.90
2018-08-06T16:54:21.643Z,32.80
2018-08-06T16:56:49.384Z,32.75
2018-08-06T16:59:17.275Z,32.73
2018-08-06T17:01:45.001Z,32.59
2018-08-06T17:04:13.264Z,32.51
2018-08-06T17:06:40.984Z,32.47
2018-08-06T17:09:09.050Z,32.43
2018-08-06T17:11:36.755Z,32.42
2018-08-06T17:14:04.977Z,32.34
2018-08-06T17:16:32.651Z,32.26
2018-08-06T17:19:00.281Z,32.22
2018-08-06T17:21:27.920Z,32.17
2018-08-06T17:23:55.598Z,32.09
2018-08-06T17:26:28.088Z,32.02
2018-08-06T17:28:55.825Z,31.93
2018-08-06T17:31:23.435Z,31.86
2018-08-06T17:33:51.119Z,31.82
2018-08-06T17:36:18.752Z,31.74
2018-08-06T17:38:46.393Z,31.63
2018-08-06T17:41:14.056Z,31.57
2018-08-06T17:43:41.651Z,31.50
2018-08-06T17:46:09.271Z,31.40
2018-08-06T17:48:36.902Z,31.28
2018-08-06T17:51:04.487Z,31.25
2018-08-06T17:53:32.112Z,31.14
2018-08-06T17:55:59.716Z,31.10
2018-08-06T17:58:27.472Z,31.00
2018-08-06T18:00:55.145Z,30.90
2018-08-06T18:03:22.815Z,30.83
2018-08-06T18:05:50.440Z,30.71
2018-08-06T18:08:18.156Z,30.67
2018-08-06T18:10:45.769Z,30.55
2018-08-06T18:13:13.376Z,30.45
2018-08-06T18:15:40.988Z,30.35
2018-08-06T18:18:08.683Z,30.29
2018-08-06T18:20:36.423Z,30.26
2018-08-06T18:23:04.083Z,30.17
2018-08-06T18:25:31.832Z,30.09
2018-08-06T18:27:59.427Z,29.99
2018-08-06T18:30:27.140Z,29.93
2018-08-06T18:32:54.868Z,29.86
2018-08-06T18:35:22.447Z,29.78
2018-08-06T18:37:50.073Z,29.70
2018-08-06T18:40:19.030Z,29.61
2018-08-06T18:42:46.779Z,29.49
2018-08-06T18:45:15.923Z,29.41
2018-08-06T18:47:44.592Z,29.31
2018-08-06T18:50:13.329Z,29.22
2018-08-06T18:52:41.650Z,29.13
2018-08-06T18:55:10.844Z,29.03
2018-08-06T18:57:38.677Z,28.99
2018-08-06T19:00:08.655Z,28.84
2018-08-06T19:02:36.475Z,28.73
2018-08-06T19:05:04.440Z,28.67
2018-08-06T19:07:32.119Z,28.61
2018-08-06T19:09:59.767Z,28.58
2018-08-06T19:12:32.804Z,28.47
2018-08-06T19:15:00.420Z,28.43
2018-08-06T19:17:28.084Z,28.37
2018-08-06T19:19:55.805Z,28.32
2018-08-06T19:22:23.375Z,28.28
2018-08-06T19:24:56.451Z,28.17
2018-08-06T19:27:24.215Z,28.10
2018-08-06T19:29:51.861Z,28.03
2018-08-06T19:32:19.475Z,27.93
2018-08-06T19:34:47.187Z,27.95
2018-08-06T19:37:20.319Z,27.96
2018-08-06T19:39:47.947Z,27.92
2018-08-06T19:42:15.640Z,27.90
2018-08-06T19:44:43.252Z,27.81
2018-08-06T19:47:10.919Z,27.75
2018-08-06T19:49:44.132Z,27.69
2018-08-06T19:52:11.759Z,27.59
2018-08-06T19:54:39.343Z,27.49
2018-08-06T19:57:07.093Z,27.39
2018-08-06T19:59:34.755Z,27.38
2018-08-06T20:02:02.488Z,27.30
2018-08-06T20:04:30.132Z,27.26
2018-08-06T20:06:57.874Z,27.25
2018-08-06T20:09:25.572Z,27.18
2018-08-06T20:11:53.229Z,27.10
2018-08-06T20:14:22.080Z,26.98
2018-08-06T20:16:49.690Z,26.87
2018-08-06T20:19:17.363Z,26.79
2018-08-06T20:21:45.193Z,26.73
2018-08-06T20:24:12.892Z,26.63
2018-08-06T20:26:40.493Z,26.58
2018-08-06T20:29:08.200Z,26.49
2018-08-06T20:31:35.869Z,26.43
2018-08-06T20:34:03.540Z,26.40
2018-08-06T20:36:31.176Z,26.35
2018-08-06T20:38:58.833Z,26.36
2018-08-06T20:41:26.464Z,26.34
2018-08-06T20:43:54.144Z,26.27
2018-08-06T20:46:21.737Z,26.25
2018-08-06T20:48:49.348Z,26.32
2018-08-06T20:51:17.037Z,26.35
2018-08-06T20:53:44.712Z,26.35
2018-08-06T20:56:12.431Z,26.31
2018-08-06T20:58:40.120Z,26.26
2018-08-06T21:01:07.748Z,26.32
2018-08-06T21:03:35.381Z,26.37
2018-08-06T21:06:03.200Z,26.43
2018-08-06T21:08:30.896Z,26.48
2018-08-06T21:10:58.549Z,26.46
2018-08-06T21:13:26.215Z,26.49
2018-08-06T21:15:53.856Z,26.47
2018-08-06T21:18:21.488Z,26.51
2018-08-06T21:20:49.160Z,26.50
2018-08-06T21:23:16.840Z,26.55
2018-08-06T21:25:44.491Z,26.45
2018-08-06T21:28:12.157Z,26.40
2018-08-06T21:30:39.845Z,26.34
2018-08-06T21:33:07.509Z,26.31
2018-08-06T21:35:35.173Z,26.32
2018-08-06T21:38:04.084Z,26.32
2018-08-06T21:40:31.718Z,26.29
2018-08-06T21:42:59.367Z,26.27
2018-08-06T21:45:27.094Z,26.22
2018-08-06T21:47:54.728Z,26.25
2018-08-06T21:50:22.373Z,26.26
2018-08-06T21:52:49.987Z,26.21
2018-08-06T21:55:17.652Z,26.11
2018-08-06T21:57:45.320Z,26.14
2018-08-06T22:00:30.664Z,26.10
2018-08-06T22:02:58.352Z,26.09
2018-08-06T22:05:26.064Z,26.08
2018-08-06T22:07:53.700Z,26.07
2018-08-06T22:10:21.432Z,26.09
2018-08-06T22:12:49.061Z,25.97
2018-08-06T22:15:16.756Z,25.91
2018-08-06T22:17:44.453Z,25.98
2018-08-06T22:20:12.068Z,25.88
2018-08-06T22:22:39.709Z,25.93
2018-08-06T22:25:07.512Z,25.97
2018-08-06T22:27:35.151Z,25.93
2018-08-06T22:30:02.794Z,25.99
2018-08-06T22:32:30.439Z,26.01
2018-08-06T22:34:58.056Z,26.04
2018-08-06T22:37:25.644Z,26.01
2018-08-06T22:39:53.396Z,26.00
2018-08-06T22:42:21.015Z,25.99
2018-08-06T22:44:48.631Z,26.06
2018-08-06T22:47:16.381Z,26.08
2018-08-06T22:49:44.013Z,26.12
2018-08-06T22:52:11.612Z,26.08
2018-08-06T22:54:39.264Z,26.14
2018-08-06T22:57:06.829Z,26.09
2018-08-06T22:59:34.422Z,26.13
2018-08-06T23:02:02.157Z,26.15
2018-08-06T23:04:29.794Z,26.12
2018-08-06T23:06:57.455Z,26.12
2018-08-06T23:09:25.137Z,26.10
2018-08-06T23:11:52.745Z,26.07
2018-08-06T23:14:20.357Z,26.07
2018-08-06T23:16:48.006Z,26.05
2018-08-06T23:19:15.628Z,26.05
2018-08-06T23:21:43.312Z,26.07
2018-08-06T23:24:11.051Z,26.03
2018-08-06T23:26:38.670Z,26.07
2018-08-06T23:29:06.271Z,26.09
2018-08-06T23:31:33.983Z,26.09
2018-08-06T23:34:01.590Z,26.07
2018-08-06T23:36:29.193Z,26.03
2018-08-06T23:38:56.855Z,26.05
2018-08-06T23:41:24.471Z,26.10
2018-08-06T23:43:52.120Z,26.10
2018-08-06T23:46:19.828Z,26.13
2018-08-06T23:48:47.719Z,26.09
2018-08-06T23:51:15.373Z,26.04
2018-08-06T23:53:43.084Z,26.02
2018-08-06T23:56:20.292Z,26.03
2018-08-06T23:58:47.960Z,26.06
